Blue Eyes — 9H9728 — position and weather

sailwx.info

Track history (hours):
 
Tides and Currents Weather Stations Pressure Air Temp Water Temp Dewpoint Dewpoint Depression Visibility Wind Speed Wind Dir Waves Ship Positions

Blue Eyes

Last reported at 2017-Aug-23 04:35 UTC. Time now 2017-Sep-22 08:36 UTC.
Position N 37°25' E 025°20'.
Warning: this ship's position is 30 days out of date.

Length 38 m.

Type: Sailing vessel. MMSI: 248276000.

Date/timePositionNaut miles runAvg speedWind from/ knotsBaromVisibWave heightAir tempDewpointWater temp
2017-Aug-23 04:35N 37°25' E 025°20'0 0.0
2017-Aug-23 04:29N 37°25' E 025°20'0 0.3
2017-Aug-23 03:58N 37°24' E 025°20'0 0.0
2017-Aug-23 03:28N 37°24' E 025°20'0 0.0
2017-Aug-23 02:58N 37°24' E 025°20'0 0.0
2017-Aug-23 02:28N 37°24' E 025°20'0 0.0
2017-Aug-23 01:58N 37°24' E 025°20'0 0.0
2017-Aug-23 01:28N 37°24' E 025°20'0 0.0
2017-Aug-23 00:58N 37°24' E 025°20'0 0.0
2017-Aug-23 00:28N 37°24' E 025°20'0 0.0
2017-Aug-22 23:58N 37°24' E 025°20'0 0.0
2017-Aug-22 23:28N 37°24' E 025°20'0 0.0
2017-Aug-22 22:58N 37°24' E 025°20'0 0.0
2017-Aug-22 22:28N 37°24' E 025°20'0 0.0
2017-Aug-22 21:58N 37°24' E 025°20'0 0.0
2017-Aug-22 21:28N 37°24' E 025°20'0 0.1
2017-Aug-22 21:00N 37°24' E 025°20'4 7.2
2017-Aug-22 20:30N 37°21' E 025°20'4 7.2
2017-Aug-22 20:00N 37°17' E 025°19'4 7.2
2017-Aug-22 19:30N 37°14' E 025°19'4 7.2
2017-Aug-22 19:00N 37°10' E 025°19'4 7.2
2017-Aug-22 18:30N 37°06' E 025°19'3 6.4
2017-Aug-22 18:00N 37°03' E 025°20'4 7.2
2017-Aug-22 17:30N 36°60' E 025°20'  
2017-Aug-19 09:24N 37°01' E 025°05'0 1.1
2017-Aug-19 08:59N 37°02' E 025°05'0 0.0
2017-Aug-19 08:29N 37°02' E 025°05'0 0.0
2017-Aug-19 07:59N 37°02' E 025°05'0 0.0
2017-Aug-19 07:29N 37°02' E 025°05'0 0.0
2017-Aug-19 06:59N 37°02' E 025°05'0 0.0
2017-Aug-19 06:29N 37°02' E 025°05'0 0.0
2017-Aug-19 05:59N 37°02' E 025°05'0 0.0
2017-Aug-19 05:29N 37°02' E 025°05'0 0.0
2017-Aug-19 04:59N 37°02' E 025°05'0 0.0
2017-Aug-19 04:29N 37°02' E 025°05'0 0.0
2017-Aug-19 03:59N 37°02' E 025°05'0 0.0
2017-Aug-19 03:29N 37°02' E 025°05'0 0.0
2017-Aug-19 02:59N 37°02' E 025°05'0 0.0
2017-Aug-19 02:29N 37°02' E 025°05'0 0.0
2017-Aug-19 01:59N 37°02' E 025°05'0 0.0
2017-Aug-19 01:29N 37°02' E 025°05'0 0.0
2017-Aug-19 00:59N 37°02' E 025°05'0 0.0
2017-Aug-19 00:29N 37°02' E 025°05'0 0.0
2017-Aug-18 23:59N 37°02' E 025°05'0 0.0
2017-Aug-18 23:29N 37°02' E 025°05'0 0.0
2017-Aug-18 22:59N 37°02' E 025°05'0 0.0
2017-Aug-18 22:23N 37°02' E 025°05'0 0.0
2017-Aug-18 21:59N 37°02' E 025°05'0 0.0
2017-Aug-18 21:29N 37°02' E 025°05'0 0.0
2017-Aug-18 20:59N 37°02' E 025°05'0 0.0
2017-Aug-18 20:29N 37°02' E 025°05'0 0.0
2017-Aug-18 19:59N 37°02' E 025°05'0 0.0
2017-Aug-18 19:29N 37°02' E 025°05'0 0.0
2017-Aug-18 18:59N 37°02' E 025°05'0 0.0
2017-Aug-18 18:29N 37°02' E 025°05'0 0.0
2017-Aug-18 17:59N 37°02' E 025°05'0 0.0
2017-Aug-18 17:29N 37°02' E 025°05'0 0.0
2017-Aug-18 16:59N 37°02' E 025°05'0 0.0
2017-Aug-18 16:29N 37°02' E 025°05'0 0.0
2017-Aug-18 15:59N 37°02' E 025°05'0 0.0
2017-Aug-18 15:29N 37°02' E 025°05'0 0.0
2017-Aug-18 14:59N 37°02' E 025°05'0 0.0
2017-Aug-18 13:59N 37°02' E 025°05'0 0.0
2017-Aug-18 13:29N 37°02' E 025°05'0 0.0
2017-Aug-18 12:59N 37°02' E 025°05'0 0.0
2017-Aug-18 12:29N 37°02' E 025°05'0 0.0
2017-Aug-18 11:59N 37°02' E 025°05'0 0.0
2017-Aug-18 11:29N 37°02' E 025°05'0 0.0
2017-Aug-18 10:59N 37°02' E 025°05'0 0.0
2017-Aug-18 10:29N 37°02' E 025°05'0 0.0
2017-Aug-18 09:59N 37°02' E 025°05'0 0.0
2017-Aug-18 09:29N 37°02' E 025°05'1 1.5
2017-Aug-18 09:01N 37°02' E 025°06'9 8.2
2017-Aug-18 07:55N 37°09' E 025°13'2 0.1
2017-Aug-17 11:19N 37°08' E 025°13'1 2.4
2017-Aug-17 11:00N 37°08' E 025°14'4 8.0
2017-Aug-17 10:30N 37°11' E 025°17'5 9.7
2017-Aug-17 10:00N 37°16' E 025°19'4 9.0
2017-Aug-17 09:30N 37°20' E 025°21'4 9.0
2017-Aug-17 09:00N 37°24' E 025°24'3 5.4
2017-Aug-17 08:27N 37°27' E 025°26'0 0.0
2017-Aug-17 08:00N 37°27' E 025°26'0 0.0
2017-Aug-17 07:24N 37°27' E 025°26'0 0.0
2017-Aug-17 07:00N 37°27' E 025°26'0 0.0
2017-Aug-17 06:30N 37°27' E 025°26'0 0.0
2017-Aug-17 06:00N 37°27' E 025°26'0 0.0
2017-Aug-17 05:30N 37°27' E 025°26'0 0.0
2017-Aug-17 05:00N 37°27' E 025°26'0 0.0
2017-Aug-17 04:30N 37°27' E 025°26'0 0.0
2017-Aug-17 04:00N 37°27' E 025°26'0 0.0
2017-Aug-17 03:30N 37°27' E 025°26'0 0.0
2017-Aug-17 03:00N 37°27' E 025°26'0 0.0
2017-Aug-17 02:30N 37°27' E 025°26'0 0.0
2017-Aug-17 02:00N 37°27' E 025°26'0 0.0
2017-Aug-17 01:30N 37°27' E 025°26'0 0.0
2017-Aug-17 01:00N 37°27' E 025°26'0 0.0
2017-Aug-17 00:30N 37°27' E 025°26'0 0.0
2017-Aug-17 00:00N 37°27' E 025°26'0 0.0
2017-Aug-16 23:30N 37°27' E 025°26'0 0.0
2017-Aug-16 23:00N 37°27' E 025°26'0 0.0
2017-Aug-16 22:30N 37°27' E 025°26'0 0.0
2017-Aug-16 22:00N 37°27' E 025°26'0 0.0
2017-Aug-16 21:30N 37°27' E 025°26'0 0.0
2017-Aug-16 21:00N 37°27' E 025°26'0 0.0
2017-Aug-16 20:31N 37°27' E 025°26'0 0.0
2017-Aug-16 20:00N 37°27' E 025°26'0 0.0
2017-Aug-16 19:30N 37°27' E 025°26'0 0.0
2017-Aug-16 19:00N 37°27' E 025°26'0 0.0
2017-Aug-16 18:30N 37°27' E 025°26'0 0.0
2017-Aug-16 18:00N 37°27' E 025°26'0 0.0
2017-Aug-16 17:30N 37°27' E 025°26'0 0.0
2017-Aug-16 17:01N 37°27' E 025°26'0 0.0
2017-Aug-16 16:30N 37°27' E 025°26'0 0.0
2017-Aug-16 16:00N 37°27' E 025°26'0 0.0
2017-Aug-16 15:31N 37°27' E 025°26'0 0.0
2017-Aug-16 15:01N 37°27' E 025°26'0 0.0
2017-Aug-16 14:31N 37°27' E 025°26'0 0.0
2017-Aug-16 14:01N 37°27' E 025°26'0 0.0
2017-Aug-16 13:28N 37°27' E 025°26'0 0.0
2017-Aug-16 13:01N 37°27' E 025°26'0 0.0
2017-Aug-16 12:28N 37°27' E 025°26'0 0.0
2017-Aug-16 11:58N 37°27' E 025°26'0 0.0
2017-Aug-16 11:28N 37°27' E 025°26'0 0.0
2017-Aug-16 10:58N 37°27' E 025°26'0 0.0
2017-Aug-16 10:28N 37°27' E 025°26'0 0.0
2017-Aug-16 09:58N 37°27' E 025°26'1 2.5
2017-Aug-16 09:30N 37°25' E 025°25'4 7.2
2017-Aug-16 09:00N 37°24' E 025°21'1 1.4
2017-Aug-16 08:23N 37°25' E 025°20'0 0.0
2017-Aug-16 07:56N 37°25' E 025°20'0 0.0
2017-Aug-16 07:29N 37°25' E 025°20'0 0.0
2017-Aug-16 06:59N 37°25' E 025°20'0 0.0
2017-Aug-16 06:29N 37°25' E 025°20'0 0.0
2017-Aug-16 05:59N 37°25' E 025°20'0 0.0
2017-Aug-16 05:29N 37°25' E 025°20'0 0.0
2017-Aug-16 04:59N 37°25' E 025°20'0 0.0
2017-Aug-16 04:29N 37°25' E 025°20'0 0.0
2017-Aug-16 03:59N 37°25' E 025°20'0 0.0
2017-Aug-16 03:26N 37°25' E 025°20'0 0.0
2017-Aug-16 02:59N 37°25' E 025°20'0 0.0
2017-Aug-16 02:29N 37°25' E 025°20'0 0.0
2017-Aug-16 01:56N 37°25' E 025°20'0 0.0
2017-Aug-16 01:29N 37°25' E 025°20'0 0.0
2017-Aug-16 00:59N 37°25' E 025°20'0 0.0
2017-Aug-16 00:26N 37°25' E 025°20'0 0.0
2017-Aug-15 23:59N 37°25' E 025°20'0 0.0
2017-Aug-15 23:29N 37°25' E 025°20'0 0.0
2017-Aug-15 22:59N 37°25' E 025°20'0 0.0
2017-Aug-15 22:29N 37°25' E 025°20'0 0.0
2017-Aug-15 21:59N 37°25' E 025°20'0 0.0
2017-Aug-15 21:29N 37°25' E 025°20'0 0.0
2017-Aug-15 20:59N 37°25' E 025°20'0 0.0
2017-Aug-15 20:29N 37°25' E 025°20'0 0.0
2017-Aug-15 19:59N 37°25' E 025°20'0 0.0
2017-Aug-15 19:29N 37°25' E 025°20'0 0.0
2017-Aug-15 18:59N 37°25' E 025°20'0 0.0
2017-Aug-15 18:29N 37°25' E 025°20'0 0.0
2017-Aug-15 17:59N 37°25' E 025°20'0 0.0
2017-Aug-15 17:29N 37°25' E 025°20'0 0.0
2017-Aug-15 16:59N 37°25' E 025°20'0 0.0
2017-Aug-15 16:29N 37°25' E 025°20'0 0.0
2017-Aug-15 15:59N 37°25' E 025°20'0 0.0
2017-Aug-15 15:26N 37°25' E 025°20'0 0.0
2017-Aug-15 14:59N 37°25' E 025°20'0 0.0
2017-Aug-15 14:20N 37°25' E 025°20'0 0.0
2017-Aug-15 13:59N 37°25' E 025°20'0 0.0
2017-Aug-15 13:26N 37°25' E 025°20'0 0.0
2017-Aug-15 12:59N 37°25' E 025°20'0 0.0
2017-Aug-15 12:29N 37°25' E 025°20'0 0.0
2017-Aug-15 11:59N 37°25' E 025°20'0 0.0
2017-Aug-15 11:29N 37°25' E 025°20'0 0.0
2017-Aug-15 10:59N 37°25' E 025°20'0 0.0
2017-Aug-15 10:29N 37°25' E 025°20'0 0.0
2017-Aug-15 09:59N 37°25' E 025°20'0 0.0
2017-Aug-15 09:29N 37°25' E 025°20'0 0.0
2017-Aug-15 08:53N 37°25' E 025°20'0 0.0
2017-Aug-15 08:29N 37°25' E 025°20'0 0.0
2017-Aug-15 07:59N 37°25' E 025°20'0 0.0
2017-Aug-15 07:20N 37°25' E 025°20'0 0.0
2017-Aug-15 06:59N 37°25' E 025°20'0 0.0
2017-Aug-15 06:29N 37°25' E 025°20'0 0.0
2017-Aug-15 05:59N 37°25' E 025°20'0 0.0
2017-Aug-15 05:29N 37°25' E 025°20'0 0.0
2017-Aug-15 04:59N 37°25' E 025°20'0 0.0
2017-Aug-15 04:29N 37°25' E 025°20'0 0.0
2017-Aug-15 03:59N 37°25' E 025°20'0 0.0
2017-Aug-15 03:29N 37°25' E 025°20'0 0.0
2017-Aug-15 02:59N 37°25' E 025°20'0 0.0
2017-Aug-15 02:29N 37°25' E 025°20'0 0.0
2017-Aug-15 01:59N 37°25' E 025°20'0 0.0
2017-Aug-15 01:29N 37°25' E 025°20'0 0.0
2017-Aug-15 00:59N 37°25' E 025°20'0 0.0
2017-Aug-15 00:29N 37°25' E 025°20'0 0.0
2017-Aug-14 23:59N 37°25' E 025°20'0 0.0
2017-Aug-14 23:29N 37°25' E 025°20'0 0.0
2017-Aug-14 22:59N 37°25' E 025°20'0 0.0
2017-Aug-14 22:29N 37°25' E 025°20'0 0.0
2017-Aug-14 21:59N 37°25' E 025°20'0 0.0
2017-Aug-14 21:29N 37°25' E 025°20'0 0.0
2017-Aug-14 20:59N 37°25' E 025°20'0 0.0
2017-Aug-14 20:29N 37°25' E 025°20'0 0.0
2017-Aug-14 19:59N 37°25' E 025°20'0 0.0
2017-Aug-14 19:29N 37°25' E 025°20'0 0.0
2017-Aug-14 18:53N 37°25' E 025°20'0 0.0
2017-Aug-14 18:29N 37°25' E 025°20'0 0.0
2017-Aug-14 17:59N 37°25' E 025°20'0 0.0
2017-Aug-14 17:23N 37°25' E 025°20'0 0.0
2017-Aug-14 16:59N 37°25' E 025°20'0 0.0
2017-Aug-14 16:29N 37°25' E 025°20'0 0.0
2017-Aug-14 15:59N 37°25' E 025°20'0 0.0
2017-Aug-14 15:23N 37°25' E 025°20'0 0.0
2017-Aug-14 14:56N 37°25' E 025°20'0 0.0
2017-Aug-14 14:29N 37°25' E 025°20'0 0.0
2017-Aug-14 13:59N 37°25' E 025°20'0 0.0
2017-Aug-14 13:29N 37°25' E 025°20'0 0.0
2017-Aug-14 12:59N 37°25' E 025°20'0 0.0
2017-Aug-14 12:29N 37°25' E 025°20'0 0.0
2017-Aug-14 11:56N 37°25' E 025°20'0 0.0
2017-Aug-14 11:29N 37°25' E 025°20'0 0.0
2017-Aug-14 10:59N 37°25' E 025°20'0 0.0
2017-Aug-14 10:29N 37°25' E 025°20'0 0.0
2017-Aug-14 09:59N 37°25' E 025°20'0 0.0
2017-Aug-14 09:29N 37°25' E 025°20'0 0.0
2017-Aug-14 08:59N 37°25' E 025°20'0 0.0
2017-Aug-14 08:23N 37°25' E 025°20'0 0.0
2017-Aug-14 07:59N 37°25' E 025°20'0 0.0
2017-Aug-14 07:23N 37°25' E 025°20'0 0.0
2017-Aug-14 06:59N 37°25' E 025°20'0 0.0
2017-Aug-14 06:23N 37°25' E 025°20'0 0.0
2017-Aug-14 05:59N 37°25' E 025°20'0 0.0
2017-Aug-14 05:29N 37°25' E 025°20'0 0.0
2017-Aug-14 04:59N 37°25' E 025°20'0 0.0
2017-Aug-14 04:29N 37°25' E 025°20'2 4.7
2017-Aug-14 04:00N 37°24' E 025°23'4 8.3
2017-Aug-14 03:30N 37°26' E 025°28'4 8.2
2017-Aug-14 03:00N 37°27' E 025°33'4 7.7
2017-Aug-14 02:28N 37°29' E 025°37'10 8.1
2017-Aug-14 01:11N 37°33' E 025°49'2 8.0
2017-Aug-14 00:57N 37°34' E 025°51'  
Track history (hours):
 
Tides and Currents Weather Stations Pressure Air Temp Water Temp Dewpoint Dewpoint Depression Visibility Wind Speed Wind Dir Waves Ship Positions

Blue Eyes

Last reported at 2017-Aug-23 04:35 UTC. Time now 2017-Sep-22 08:36 UTC.
Position N 37°25' E 025°20'.
Warning: this ship's position is 30 days out of date.

Length 38 m.

Type: Sailing vessel. MMSI: 248276000.

Date/timePositionNaut miles runAvg speedWind from/ knotsBaromVisibWave heightAir tempDewpointWater temp
2017-Aug-23 04:35N 37°25' E 025°20'0 0.0
2017-Aug-23 04:29N 37°25' E 025°20'0 0.3
2017-Aug-23 03:58N 37°24' E 025°20'0 0.0
2017-Aug-23 03:28N 37°24' E 025°20'0 0.0
2017-Aug-23 02:58N 37°24' E 025°20'0 0.0
2017-Aug-23 02:28N 37°24' E 025°20'0 0.0
2017-Aug-23 01:58N 37°24' E 025°20'0 0.0
2017-Aug-23 01:28N 37°24' E 025°20'0 0.0
2017-Aug-23 00:58N 37°24' E 025°20'0 0.0
2017-Aug-23 00:28N 37°24' E 025°20'0 0.0
2017-Aug-22 23:58N 37°24' E 025°20'0 0.0
2017-Aug-22 23:28N 37°24' E 025°20'0 0.0
2017-Aug-22 22:58N 37°24' E 025°20'0 0.0
2017-Aug-22 22:28N 37°24' E 025°20'0 0.0
2017-Aug-22 21:58N 37°24' E 025°20'0 0.0
2017-Aug-22 21:28N 37°24' E 025°20'0 0.1
2017-Aug-22 21:00N 37°24' E 025°20'4 7.2
2017-Aug-22 20:30N 37°21' E 025°20'4 7.2
2017-Aug-22 20:00N 37°17' E 025°19'4 7.2
2017-Aug-22 19:30N 37°14' E 025°19'4 7.2
2017-Aug-22 19:00N 37°10' E 025°19'4 7.2
2017-Aug-22 18:30N 37°06' E 025°19'3 6.4
2017-Aug-22 18:00N 37°03' E 025°20'4 7.2
2017-Aug-22 17:30N 36°60' E 025°20'  
2017-Aug-19 09:24N 37°01' E 025°05'0 1.1
2017-Aug-19 08:59N 37°02' E 025°05'0 0.0
2017-Aug-19 08:29N 37°02' E 025°05'0 0.0
2017-Aug-19 07:59N 37°02' E 025°05'0 0.0
2017-Aug-19 07:29N 37°02' E 025°05'0 0.0
2017-Aug-19 06:59N 37°02' E 025°05'0 0.0
2017-Aug-19 06:29N 37°02' E 025°05'0 0.0
2017-Aug-19 05:59N 37°02' E 025°05'0 0.0
2017-Aug-19 05:29N 37°02' E 025°05'0 0.0
2017-Aug-19 04:59N 37°02' E 025°05'0 0.0
2017-Aug-19 04:29N 37°02' E 025°05'0 0.0
2017-Aug-19 03:59N 37°02' E 025°05'0 0.0
2017-Aug-19 03:29N 37°02' E 025°05'0 0.0
2017-Aug-19 02:59N 37°02' E 025°05'0 0.0
2017-Aug-19 02:29N 37°02' E 025°05'0 0.0
2017-Aug-19 01:59N 37°02' E 025°05'0 0.0
2017-Aug-19 01:29N 37°02' E 025°05'0 0.0
2017-Aug-19 00:59N 37°02' E 025°05'0 0.0
2017-Aug-19 00:29N 37°02' E 025°05'0 0.0
2017-Aug-18 23:59N 37°02' E 025°05'0 0.0
2017-Aug-18 23:29N 37°02' E 025°05'0 0.0
2017-Aug-18 22:59N 37°02' E 025°05'0 0.0
2017-Aug-18 22:23N 37°02' E 025°05'0 0.0
2017-Aug-18 21:59N 37°02' E 025°05'0 0.0
2017-Aug-18 21:29N 37°02' E 025°05'0 0.0
2017-Aug-18 20:59N 37°02' E 025°05'0 0.0
2017-Aug-18 20:29N 37°02' E 025°05'0 0.0
2017-Aug-18 19:59N 37°02' E 025°05'0 0.0
2017-Aug-18 19:29N 37°02' E 025°05'0 0.0
2017-Aug-18 18:59N 37°02' E 025°05'0 0.0
2017-Aug-18 18:29N 37°02' E 025°05'0 0.0
2017-Aug-18 17:59N 37°02' E 025°05'0 0.0
2017-Aug-18 17:29N 37°02' E 025°05'0 0.0
2017-Aug-18 16:59N 37°02' E 025°05'0 0.0
2017-Aug-18 16:29N 37°02' E 025°05'0 0.0
2017-Aug-18 15:59N 37°02' E 025°05'0 0.0
2017-Aug-18 15:29N 37°02' E 025°05'0 0.0
2017-Aug-18 14:59N 37°02' E 025°05'0 0.0
2017-Aug-18 13:59N 37°02' E 025°05'0 0.0
2017-Aug-18 13:29N 37°02' E 025°05'0 0.0
2017-Aug-18 12:59N 37°02' E 025°05'0 0.0
2017-Aug-18 12:29N 37°02' E 025°05'0 0.0
2017-Aug-18 11:59N 37°02' E 025°05'0 0.0
2017-Aug-18 11:29N 37°02' E 025°05'0 0.0
2017-Aug-18 10:59N 37°02' E 025°05'0 0.0
2017-Aug-18 10:29N 37°02' E 025°05'0 0.0
2017-Aug-18 09:59N 37°02' E 025°05'0 0.0
2017-Aug-18 09:29N 37°02' E 025°05'1 1.5
2017-Aug-18 09:01N 37°02' E 025°06'9 8.2
2017-Aug-18 07:55N 37°09' E 025°13'2 0.1
2017-Aug-17 11:19N 37°08' E 025°13'1 2.4
2017-Aug-17 11:00N 37°08' E 025°14'4 8.0
2017-Aug-17 10:30N 37°11' E 025°17'5 9.7
2017-Aug-17 10:00N 37°16' E 025°19'4 9.0
2017-Aug-17 09:30N 37°20' E 025°21'4 9.0
2017-Aug-17 09:00N 37°24' E 025°24'3 5.4
2017-Aug-17 08:27N 37°27' E 025°26'0 0.0
2017-Aug-17 08:00N 37°27' E 025°26'0 0.0
2017-Aug-17 07:24N 37°27' E 025°26'0 0.0
2017-Aug-17 07:00N 37°27' E 025°26'0 0.0
2017-Aug-17 06:30N 37°27' E 025°26'0 0.0
2017-Aug-17 06:00N 37°27' E 025°26'0 0.0
2017-Aug-17 05:30N 37°27' E 025°26'0 0.0
2017-Aug-17 05:00N 37°27' E 025°26'0 0.0
2017-Aug-17 04:30N 37°27' E 025°26'0 0.0
2017-Aug-17 04:00N 37°27' E 025°26'0 0.0
2017-Aug-17 03:30N 37°27' E 025°26'0 0.0
2017-Aug-17 03:00N 37°27' E 025°26'0 0.0
2017-Aug-17 02:30N 37°27' E 025°26'0 0.0
2017-Aug-17 02:00N 37°27' E 025°26'0 0.0
2017-Aug-17 01:30N 37°27' E 025°26'0 0.0
2017-Aug-17 01:00N 37°27' E 025°26'0 0.0
2017-Aug-17 00:30N 37°27' E 025°26'0 0.0
2017-Aug-17 00:00N 37°27' E 025°26'0 0.0
2017-Aug-16 23:30N 37°27' E 025°26'0 0.0
2017-Aug-16 23:00N 37°27' E 025°26'0 0.0
2017-Aug-16 22:30N 37°27' E 025°26'0 0.0
2017-Aug-16 22:00N 37°27' E 025°26'0 0.0
2017-Aug-16 21:30N 37°27' E 025°26'0 0.0
2017-Aug-16 21:00N 37°27' E 025°26'0 0.0
2017-Aug-16 20:31N 37°27' E 025°26'0 0.0
2017-Aug-16 20:00N 37°27' E 025°26'0 0.0
2017-Aug-16 19:30N 37°27' E 025°26'0 0.0
2017-Aug-16 19:00N 37°27' E 025°26'0 0.0
2017-Aug-16 18:30N 37°27' E 025°26'0 0.0
2017-Aug-16 18:00N 37°27' E 025°26'0 0.0
2017-Aug-16 17:30N 37°27' E 025°26'0 0.0
2017-Aug-16 17:01N 37°27' E 025°26'0 0.0
2017-Aug-16 16:30N 37°27' E 025°26'0 0.0
2017-Aug-16 16:00N 37°27' E 025°26'0 0.0
2017-Aug-16 15:31N 37°27' E 025°26'0 0.0
2017-Aug-16 15:01N 37°27' E 025°26'0 0.0
2017-Aug-16 14:31N 37°27' E 025°26'0 0.0
2017-Aug-16 14:01N 37°27' E 025°26'0 0.0
2017-Aug-16 13:28N 37°27' E 025°26'0 0.0
2017-Aug-16 13:01N 37°27' E 025°26'0 0.0
2017-Aug-16 12:28N 37°27' E 025°26'0 0.0
2017-Aug-16 11:58N 37°27' E 025°26'0 0.0
2017-Aug-16 11:28N 37°27' E 025°26'0 0.0
2017-Aug-16 10:58N 37°27' E 025°26'0 0.0
2017-Aug-16 10:28N 37°27' E 025°26'0 0.0
2017-Aug-16 09:58N 37°27' E 025°26'1 2.5
2017-Aug-16 09:30N 37°25' E 025°25'4 7.2
2017-Aug-16 09:00N 37°24' E 025°21'1 1.4
2017-Aug-16 08:23N 37°25' E 025°20'0 0.0
2017-Aug-16 07:56N 37°25' E 025°20'0 0.0
2017-Aug-16 07:29N 37°25' E 025°20'0 0.0
2017-Aug-16 06:59N 37°25' E 025°20'0 0.0
2017-Aug-16 06:29N 37°25' E 025°20'0 0.0
2017-Aug-16 05:59N 37°25' E 025°20'0 0.0
2017-Aug-16 05:29N 37°25' E 025°20'0 0.0
2017-Aug-16 04:59N 37°25' E 025°20'0 0.0
2017-Aug-16 04:29N 37°25' E 025°20'0 0.0
2017-Aug-16 03:59N 37°25' E 025°20'0 0.0
2017-Aug-16 03:26N 37°25' E 025°20'0 0.0
2017-Aug-16 02:59N 37°25' E 025°20'0 0.0
2017-Aug-16 02:29N 37°25' E 025°20'0 0.0
2017-Aug-16 01:56N 37°25' E 025°20'0 0.0
2017-Aug-16 01:29N 37°25' E 025°20'0 0.0
2017-Aug-16 00:59N 37°25' E 025°20'0 0.0
2017-Aug-16 00:26N 37°25' E 025°20'0 0.0
2017-Aug-15 23:59N 37°25' E 025°20'0 0.0
2017-Aug-15 23:29N 37°25' E 025°20'0 0.0
2017-Aug-15 22:59N 37°25' E 025°20'0 0.0
2017-Aug-15 22:29N 37°25' E 025°20'0 0.0
2017-Aug-15 21:59N 37°25' E 025°20'0 0.0
2017-Aug-15 21:29N 37°25' E 025°20'0 0.0
2017-Aug-15 20:59N 37°25' E 025°20'0 0.0
2017-Aug-15 20:29N 37°25' E 025°20'0 0.0
2017-Aug-15 19:59N 37°25' E 025°20'0 0.0
2017-Aug-15 19:29N 37°25' E 025°20'0 0.0
2017-Aug-15 18:59N 37°25' E 025°20'0 0.0
2017-Aug-15 18:29N 37°25' E 025°20'0 0.0
2017-Aug-15 17:59N 37°25' E 025°20'0 0.0
2017-Aug-15 17:29N 37°25' E 025°20'0 0.0
2017-Aug-15 16:59N 37°25' E 025°20'0 0.0
2017-Aug-15 16:29N 37°25' E 025°20'0 0.0
2017-Aug-15 15:59N 37°25' E 025°20'0 0.0
2017-Aug-15 15:26N 37°25' E 025°20'0 0.0
2017-Aug-15 14:59N 37°25' E 025°20'0 0.0
2017-Aug-15 14:20N 37°25' E 025°20'0 0.0
2017-Aug-15 13:59N 37°25' E 025°20'0 0.0
2017-Aug-15 13:26N 37°25' E 025°20'0 0.0
2017-Aug-15 12:59N 37°25' E 025°20'0 0.0
2017-Aug-15 12:29N 37°25' E 025°20'0 0.0
2017-Aug-15 11:59N 37°25' E 025°20'0 0.0
2017-Aug-15 11:29N 37°25' E 025°20'0 0.0
2017-Aug-15 10:59N 37°25' E 025°20'0 0.0
2017-Aug-15 10:29N 37°25' E 025°20'0 0.0
2017-Aug-15 09:59N 37°25' E 025°20'0 0.0
2017-Aug-15 09:29N 37°25' E 025°20'0 0.0
2017-Aug-15 08:53N 37°25' E 025°20'0 0.0
2017-Aug-15 08:29N 37°25' E 025°20'0 0.0
2017-Aug-15 07:59N 37°25' E 025°20'0 0.0
2017-Aug-15 07:20N 37°25' E 025°20'0 0.0
2017-Aug-15 06:59N 37°25' E 025°20'0 0.0
2017-Aug-15 06:29N 37°25' E 025°20'0 0.0
2017-Aug-15 05:59N 37°25' E 025°20'0 0.0
2017-Aug-15 05:29N 37°25' E 025°20'0 0.0
2017-Aug-15 04:59N 37°25' E 025°20'0 0.0
2017-Aug-15 04:29N 37°25' E 025°20'0 0.0
2017-Aug-15 03:59N 37°25' E 025°20'0 0.0
2017-Aug-15 03:29N 37°25' E 025°20'0 0.0
2017-Aug-15 02:59N 37°25' E 025°20'0 0.0
2017-Aug-15 02:29N 37°25' E 025°20'0 0.0
2017-Aug-15 01:59N 37°25' E 025°20'0 0.0
2017-Aug-15 01:29N 37°25' E 025°20'0 0.0
2017-Aug-15 00:59N 37°25' E 025°20'0 0.0
2017-Aug-15 00:29N 37°25' E 025°20'0 0.0
2017-Aug-14 23:59N 37°25' E 025°20'0 0.0
2017-Aug-14 23:29N 37°25' E 025°20'0 0.0
2017-Aug-14 22:59N 37°25' E 025°20'0 0.0
2017-Aug-14 22:29N 37°25' E 025°20'0 0.0
2017-Aug-14 21:59N 37°25' E 025°20'0 0.0
2017-Aug-14 21:29N 37°25' E 025°20'0 0.0
2017-Aug-14 20:59N 37°25' E 025°20'0 0.0
2017-Aug-14 20:29N 37°25' E 025°20'0 0.0
2017-Aug-14 19:59N 37°25' E 025°20'0 0.0
2017-Aug-14 19:29N 37°25' E 025°20'0 0.0
2017-Aug-14 18:53N 37°25' E 025°20'0 0.0
2017-Aug-14 18:29N 37°25' E 025°20'0 0.0
2017-Aug-14 17:59N 37°25' E 025°20'0 0.0
2017-Aug-14 17:23N 37°25' E 025°20'0 0.0
2017-Aug-14 16:59N 37°25' E 025°20'0 0.0
2017-Aug-14 16:29N 37°25' E 025°20'0 0.0
2017-Aug-14 15:59N 37°25' E 025°20'0 0.0
2017-Aug-14 15:23N 37°25' E 025°20'0 0.0
2017-Aug-14 14:56N 37°25' E 025°20'0 0.0
2017-Aug-14 14:29N 37°25' E 025°20'0 0.0
2017-Aug-14 13:59N 37°25' E 025°20'0 0.0
2017-Aug-14 13:29N 37°25' E 025°20'0 0.0
2017-Aug-14 12:59N 37°25' E 025°20'0 0.0
2017-Aug-14 12:29N 37°25' E 025°20'0 0.0
2017-Aug-14 11:56N 37°25' E 025°20'0 0.0
2017-Aug-14 11:29N 37°25' E 025°20'0 0.0
2017-Aug-14 10:59N 37°25' E 025°20'0 0.0
2017-Aug-14 10:29N 37°25' E 025°20'0 0.0
2017-Aug-14 09:59N 37°25' E 025°20'0 0.0
2017-Aug-14 09:29N 37°25' E 025°20'0 0.0
2017-Aug-14 08:59N 37°25' E 025°20'0 0.0
2017-Aug-14 08:23N 37°25' E 025°20'0 0.0
2017-Aug-14 07:59N 37°25' E 025°20'0 0.0
2017-Aug-14 07:23N 37°25' E 025°20'0 0.0
2017-Aug-14 06:59N 37°25' E 025°20'0 0.0
2017-Aug-14 06:23N 37°25' E 025°20'0 0.0
2017-Aug-14 05:59N 37°25' E 025°20'0 0.0
2017-Aug-14 05:29N 37°25' E 025°20'0 0.0
2017-Aug-14 04:59N 37°25' E 025°20'0 0.0
2017-Aug-14 04:29N 37°25' E 025°20'2 4.7
2017-Aug-14 04:00N 37°24' E 025°23'4 8.3
2017-Aug-14 03:30N 37°26' E 025°28'4 8.2
2017-Aug-14 03:00N 37°27' E 025°33'4 7.7
2017-Aug-14 02:28N 37°29' E 025°37'10 8.1
2017-Aug-14 01:11N 37°33' E 025°49'2 8.0
2017-Aug-14 00:57N 37°34' E 025°51'  

Dump ship's entire track history